createdAt,value
2018-02-10T00:00:35.672Z,95.10
2018-02-10T00:01:10.782Z,90.40
2018-02-10T00:01:46.022Z,85.90
2018-02-10T00:02:21.307Z,90.50
2018-02-10T00:02:56.521Z,88.60
2018-02-10T00:03:31.852Z,89.50
2018-02-10T00:04:07.226Z,92.90
2018-02-10T00:04:42.652Z,93.30
2018-02-10T00:05:18.164Z,87.50
2018-02-10T00:05:53.694Z,90.40
2018-02-10T00:06:28.868Z,80.90
2018-02-10T00:07:04.400Z,85.10
2018-02-10T00:07:39.805Z,81.10
2018-02-10T00:08:14.917Z,76.00
2018-02-10T00:08:50.312Z,81.70
2018-02-10T00:09:25.730Z,78.20
2018-02-10T00:10:00.997Z,71.70
2018-02-10T00:10:36.720Z,81.90
2018-02-10T00:11:11.972Z,83.40
2018-02-10T00:11:47.783Z,81.80
2018-02-10T00:12:23.331Z,84.40
2018-02-10T00:12:58.520Z,84.70
2018-02-10T00:13:33.820Z,79.10
2018-02-10T00:14:09.305Z,81.10
2018-02-10T00:14:44.515Z,83.60
2018-02-10T00:15:19.900Z,90.80
2018-02-10T00:15:56.210Z,87.70
2018-02-10T00:16:31.523Z,79.20
2018-02-10T00:17:06.742Z,82.80
2018-02-10T00:17:41.846Z,82.00
2018-02-10T00:18:17.058Z,87.90
2018-02-10T00:18:52.360Z,81.40
2018-02-10T00:19:27.757Z,85.40
2018-02-10T00:20:03.253Z,76.60
2018-02-10T00:20:39.870Z,73.40
2018-02-10T00:21:15.275Z,78.70
2018-02-10T00:21:50.920Z,83.30
2018-02-10T00:22:26.197Z,78.20
2018-02-10T00:23:01.537Z,84.00
2018-02-10T00:23:36.648Z,80.00
2018-02-10T00:24:12.128Z,77.80
2018-02-10T00:24:47.638Z,83.60
2018-02-10T00:25:23.312Z,80.40
2018-02-10T00:25:59.437Z,83.00
2018-02-10T00:26:34.914Z,84.10
2018-02-10T00:27:10.137Z,77.50
2018-02-10T00:27:45.221Z,86.90
2018-02-10T00:28:20.542Z,80.50
2018-02-10T00:28:55.814Z,70.90
2018-02-10T00:29:31.004Z,76.90
2018-02-10T00:30:06.415Z,68.40
2018-02-10T00:30:43.082Z,70.70
2018-02-10T00:31:18.278Z,77.80
2018-02-10T00:31:53.445Z,75.50
2018-02-10T00:32:29.433Z,74.90
2018-02-10T00:33:05.108Z,82.10
2018-02-10T00:33:40.437Z,82.50
2018-02-10T00:34:15.710Z,83.30
2018-02-10T00:34:50.904Z,79.10
2018-02-10T00:35:26.209Z,77.60
2018-02-10T00:36:01.284Z,76.50
2018-02-10T00:36:36.800Z,74.90
2018-02-10T00:37:12.373Z,74.40
2018-02-10T00:37:47.365Z,79.60
2018-02-10T00:38:23.240Z,80.10
2018-02-10T00:38:58.968Z,71.20
2018-02-10T00:39:34.446Z,71.30
2018-02-10T00:40:10.039Z,71.60
2018-02-10T00:40:46.820Z,76.50
2018-02-10T00:41:22.119Z,76.00
2018-02-10T00:41:57.520Z,67.40
2018-02-10T00:42:32.813Z,72.40
2018-02-10T00:43:07.902Z,76.40
2018-02-10T00:43:43.379Z,74.00
2018-02-10T00:44:18.612Z,74.40
2018-02-10T00:44:53.875Z,73.50
2018-02-10T00:45:29.178Z,71.70
2018-02-10T00:46:04.548Z,76.20
2018-02-10T00:46:40.146Z,78.10
2018-02-10T00:47:15.419Z,76.10
2018-02-10T00:47:50.520Z,81.80
2018-02-10T00:48:25.829Z,82.60
2018-02-10T00:49:01.807Z,74.70
2018-02-10T00:49:37.144Z,79.50
2018-02-10T00:50:12.234Z,84.80
2018-02-10T00:50:48.125Z,88.50
2018-02-10T00:51:23.393Z,79.00
2018-02-10T00:51:58.698Z,73.30
2018-02-10T00:52:33.773Z,69.00
2018-02-10T00:53:09.086Z,70.50
2018-02-10T00:53:44.447Z,73.90
2018-02-10T00:54:19.646Z,79.10
2018-02-10T00:54:55.075Z,76.60
2018-02-10T00:55:30.254Z,72.80
2018-02-10T00:56:05.867Z,72.40
2018-02-10T00:56:41.053Z,70.00
2018-02-10T00:57:16.675Z,67.90
2018-02-10T00:57:52.255Z,72.30
2018-02-10T00:58:27.952Z,77.10
2018-02-10T00:59:03.230Z,73.80
2018-02-10T00:59:38.526Z,72.40
2018-02-10T01:00:13.956Z,75.70
2018-02-10T01:00:50.446Z,80.20
2018-02-10T01:01:25.640Z,74.10
2018-02-10T01:02:01.112Z,80.40
2018-02-10T01:02:36.409Z,77.40
2018-02-10T01:03:11.686Z,76.30
2018-02-10T01:03:47.179Z,77.30
2018-02-10T01:04:22.453Z,71.60
2018-02-10T01:04:57.653Z,64.00
2018-02-10T01:05:33.261Z,68.40
2018-02-10T01:06:08.817Z,66.50
2018-02-10T01:06:45.174Z,70.20
2018-02-10T01:07:20.853Z,74.40
2018-02-10T01:07:56.162Z,66.30
2018-02-10T01:08:31.438Z,67.80
2018-02-10T01:09:06.656Z,72.10
2018-02-10T01:09:42.335Z,67.10
2018-02-10T01:10:17.538Z,69.90
2018-02-10T01:10:52.738Z,71.30
2018-02-10T01:11:28.242Z,67.00
2018-02-10T01:12:03.852Z,67.50
2018-02-10T01:12:39.432Z,68.80
2018-02-10T01:13:14.633Z,69.50
2018-02-10T01:13:51.313Z,71.50
2018-02-10T01:14:26.623Z,75.10
2018-02-10T01:15:01.806Z,64.00
2018-02-10T01:15:38.032Z,57.80
2018-02-10T01:16:13.354Z,64.40
2018-02-10T01:16:48.554Z,72.10
2018-02-10T01:17:24.133Z,68.00
2018-02-10T01:17:59.430Z,75.10
2018-02-10T01:18:34.863Z,67.70
2018-02-10T01:19:10.141Z,70.40
2018-02-10T01:19:45.652Z,74.00
2018-02-10T01:20:21.118Z,70.00
2018-02-10T01:20:56.524Z,61.30
2018-02-10T01:21:31.934Z,63.60
2018-02-10T01:22:07.438Z,70.20
2018-02-10T01:22:43.021Z,75.00
2018-02-10T01:23:18.337Z,66.20
2018-02-10T01:23:53.818Z,62.20
2018-02-10T01:24:29.426Z,59.50
2018-02-10T01:25:04.839Z,61.90
2018-02-10T01:25:41.123Z,68.30
2018-02-10T01:26:16.525Z,67.90
2018-02-10T01:26:51.937Z,69.00
2018-02-10T01:27:27.249Z,64.70
2018-02-10T01:28:02.840Z,70.80
2018-02-10T01:28:38.258Z,68.60
2018-02-10T01:29:13.648Z,63.30
2018-02-10T01:29:48.954Z,66.70
2018-02-10T01:30:24.263Z,66.60
2018-02-10T01:31:00.039Z,63.70
2018-02-10T01:31:35.635Z,63.70
2018-02-10T01:32:10.968Z,70.60
2018-02-10T01:32:45.969Z,75.60
2018-02-10T01:33:21.248Z,76.90
2018-02-10T01:33:56.461Z,71.50
2018-02-10T01:34:31.726Z,65.20
2018-02-10T01:35:07.054Z,65.50
2018-02-10T01:35:42.231Z,63.90
2018-02-10T01:36:17.233Z,60.10
2018-02-10T01:36:52.299Z,64.50
2018-02-10T01:37:27.448Z,70.90
2018-02-10T01:38:02.659Z,66.30
2018-02-10T01:38:37.834Z,66.30
2018-02-10T01:39:13.438Z,71.20
2018-02-10T01:39:48.810Z,69.40
2018-02-10T01:40:24.123Z,62.70
2018-02-10T01:40:59.615Z,59.50
2018-02-10T01:41:34.840Z,63.00
2018-02-10T01:42:10.212Z,62.20
2018-02-10T01:42:45.848Z,58.20
2018-02-10T01:43:20.926Z,59.80
2018-02-10T01:43:56.322Z,67.90
2018-02-10T01:44:31.627Z,69.10
2018-02-10T01:45:07.211Z,71.60
2018-02-10T01:45:45.230Z,66.60
2018-02-10T01:46:20.701Z,59.00
2018-02-10T01:46:55.914Z,63.90
2018-02-10T01:47:31.493Z,65.70
2018-02-10T01:48:07.036Z,65.70
2018-02-10T01:48:42.122Z,63.90
2018-02-10T01:49:17.630Z,66.80
2018-02-10T01:49:53.045Z,63.70
2018-02-10T01:50:28.319Z,61.20
2018-02-10T01:51:03.518Z,58.30
2018-02-10T01:51:39.105Z,62.40
2018-02-10T01:52:14.403Z,59.70
2018-02-10T01:52:49.487Z,63.30
2018-02-10T01:53:24.837Z,65.60
2018-02-10T01:54:00.010Z,62.50
2018-02-10T01:54:35.513Z,56.60
2018-02-10T01:55:11.012Z,53.00
2018-02-10T01:55:46.437Z,51.30
2018-02-10T01:56:21.946Z,56.20
2018-02-10T01:56:57.231Z,56.90
2018-02-10T01:57:32.431Z,58.00
2018-02-10T01:58:07.744Z,59.50
2018-02-10T01:58:44.181Z,55.40
2018-02-10T01:59:19.569Z,58.80
2018-02-10T01:59:54.886Z,61.20
2018-02-10T02:00:30.181Z,60.30
2018-02-10T02:01:06.318Z,61.40
2018-02-10T02:01:41.736Z,60.30
2018-02-10T02:02:16.842Z,63.50
2018-02-10T02:02:52.353Z,61.20
2018-02-10T02:03:28.231Z,59.60
2018-02-10T02:04:03.769Z,60.80
2018-02-10T02:04:39.257Z,58.60
2018-02-10T02:05:14.774Z,60.00
2018-02-10T02:05:51.548Z,62.60
2018-02-10T02:06:26.850Z,60.40
2018-02-10T02:07:02.334Z,53.60
2018-02-10T02:07:37.643Z,62.20
2018-02-10T02:08:13.056Z,58.40
2018-02-10T02:08:48.450Z,56.10
2018-02-10T02:09:23.802Z,58.00
2018-02-10T02:09:58.981Z,57.60
2018-02-10T02:10:34.390Z,55.70
2018-02-10T02:11:09.570Z,56.10
2018-02-10T02:11:44.877Z,55.30
2018-02-10T02:12:20.059Z,62.50
2018-02-10T02:12:55.155Z,61.10
2018-02-10T02:13:30.248Z,62.40
2018-02-10T02:14:05.749Z,62.20
2018-02-10T02:14:40.991Z,57.80
2018-02-10T02:15:16.559Z,55.50
2018-02-10T02:15:52.873Z,56.60
2018-02-10T02:16:28.347Z,51.40
2018-02-10T02:17:03.649Z,53.80
2018-02-10T02:17:38.929Z,57.50
2018-02-10T02:18:14.030Z,62.60
2018-02-10T02:18:49.547Z,58.00
2018-02-10T02:19:24.647Z,61.10
2018-02-10T02:20:00.114Z,62.00
2018-02-10T02:20:36.218Z,57.10
2018-02-10T02:21:11.750Z,51.30
2018-02-10T02:21:47.088Z,52.10
2018-02-10T02:22:22.598Z,54.20
2018-02-10T02:22:58.202Z,57.00
2018-02-10T02:23:33.635Z,58.30
2018-02-10T02:24:09.338Z,56.80
2018-02-10T02:24:45.685Z,55.90
2018-02-10T02:25:21.033Z,63.00
2018-02-10T02:25:56.436Z,59.30
2018-02-10T02:26:31.794Z,54.60
2018-02-10T02:27:07.190Z,55.80
2018-02-10T02:27:43.925Z,55.50
2018-02-10T02:28:19.321Z,58.70
2018-02-10T02:28:54.738Z,54.70
2018-02-10T02:29:29.935Z,52.40
2018-02-10T02:30:05.154Z,55.80
2018-02-10T02:30:42.873Z,50.40
2018-02-10T02:31:18.104Z,50.80
2018-02-10T02:31:53.740Z,56.20
2018-02-10T02:32:28.945Z,51.50
2018-02-10T02:33:04.274Z,52.50
2018-02-10T02:33:39.570Z,51.20
2018-02-10T02:34:14.802Z,56.90
2018-02-10T02:34:50.186Z,58.10
2018-02-10T02:35:25.407Z,59.30
2018-02-10T02:36:00.734Z,58.10
2018-02-10T02:36:36.154Z,52.50
2018-02-10T02:37:11.759Z,58.80
2018-02-10T02:37:47.079Z,65.70
2018-02-10T02:38:22.411Z,59.80
2018-02-10T02:38:57.500Z,52.10
2018-02-10T02:39:32.825Z,53.90
2018-02-10T02:40:08.226Z,58.30
2018-02-10T02:40:45.452Z,56.50
2018-02-10T02:41:20.860Z,55.80
2018-02-10T02:41:56.184Z,60.10
2018-02-10T02:42:31.586Z,56.70
2018-02-10T02:43:07.102Z,51.80
2018-02-10T02:43:42.522Z,54.20
2018-02-10T02:44:17.793Z,53.00
2018-02-10T02:44:53.197Z,52.80
2018-02-10T02:45:28.491Z,56.50
2018-02-10T02:46:03.689Z,50.80
2018-02-10T02:46:39.193Z,47.90
2018-02-10T02:47:14.394Z,48.30
2018-02-10T02:47:49.897Z,49.50
2018-02-10T02:48:25.206Z,51.70
2018-02-10T02:49:00.184Z,54.30
2018-02-10T02:49:35.701Z,52.50
2018-02-10T02:50:10.928Z,47.70
2018-02-10T02:50:46.928Z,48.70
2018-02-10T02:51:22.177Z,48.40
2018-02-10T02:51:57.481Z,56.50
2018-02-10T02:52:33.006Z,52.80
2018-02-10T02:53:08.186Z,54.40
2018-02-10T02:53:45.303Z,56.70
2018-02-10T02:54:20.595Z,50.30
2018-02-10T02:54:56.015Z,53.00
2018-02-10T02:55:31.607Z,52.90
2018-02-10T02:56:07.105Z,52.50
2018-02-10T02:56:42.410Z,56.00
2018-02-10T02:57:17.734Z,53.10
2018-02-10T02:57:53.049Z,48.10
2018-02-10T02:58:28.325Z,48.40
2018-02-10T02:59:03.439Z,49.60
2018-02-10T02:59:38.730Z,55.00
2018-02-10T03:00:14.251Z,57.90
2018-02-10T03:00:49.644Z,57.50
2018-02-10T03:01:24.766Z,57.10
2018-02-10T03:02:00.800Z,57.20
2018-02-10T03:02:36.246Z,57.70
2018-02-10T03:03:11.468Z,57.10
2018-02-10T03:03:47.136Z,49.50
2018-02-10T03:04:22.455Z,53.70
2018-02-10T03:04:57.748Z,57.50
2018-02-10T03:05:33.164Z,53.80
2018-02-10T03:06:08.361Z,52.20
2018-02-10T03:06:43.983Z,53.80
2018-02-10T03:07:19.176Z,54.80
2018-02-10T03:07:54.626Z,48.50
2018-02-10T03:08:30.344Z,50.40
2018-02-10T03:09:05.648Z,53.80
2018-02-10T03:09:40.953Z,55.20
2018-02-10T03:10:16.622Z,53.10
2018-02-10T03:10:54.028Z,55.10
2018-02-10T03:11:29.505Z,56.70
2018-02-10T03:12:05.128Z,56.70
2018-02-10T03:12:40.397Z,54.50
2018-02-10T03:13:15.837Z,50.50
2018-02-10T03:13:51.346Z,46.80
2018-02-10T03:14:26.515Z,49.50
2018-02-10T03:15:01.914Z,54.60
2018-02-10T03:15:37.581Z,50.90
2018-02-10T03:16:12.974Z,51.10
2018-02-10T03:16:48.347Z,52.60
2018-02-10T03:17:23.838Z,51.20
2018-02-10T03:17:59.225Z,55.40
2018-02-10T03:18:34.672Z,57.00
2018-02-10T03:19:10.248Z,54.70
2018-02-10T03:19:45.575Z,52.10
2018-02-10T03:20:20.979Z,55.60
2018-02-10T03:20:56.371Z,51.20
2018-02-10T03:21:31.679Z,50.40
2018-02-10T03:22:06.769Z,49.20
2018-02-10T03:22:42.489Z,54.50
2018-02-10T03:23:17.666Z,59.40
2018-02-10T03:23:54.523Z,54.80
2018-02-10T03:24:29.805Z,54.90
2018-02-10T03:25:05.219Z,56.80
2018-02-10T03:25:41.604Z,54.50
2018-02-10T03:26:16.712Z,52.20
2018-02-10T03:26:52.236Z,55.30
2018-02-10T03:27:27.717Z,56.10
2018-02-10T03:28:03.034Z,53.30
2018-02-10T03:28:38.126Z,54.50
2018-02-10T03:29:13.361Z,61.00
2018-02-10T03:29:48.952Z,59.00
2018-02-10T03:30:24.283Z,54.10
2018-02-10T03:30:59.462Z,54.60
2018-02-10T03:31:34.866Z,58.20
2018-02-10T03:32:10.147Z,60.00
2018-02-10T03:32:45.453Z,59.60
2018-02-10T03:33:21.340Z,53.20
2018-02-10T03:33:56.956Z,50.40
2018-02-10T03:34:32.305Z,49.40
2018-02-10T03:35:07.592Z,50.40
2018-02-10T03:35:43.399Z,56.90
2018-02-10T03:36:18.994Z,60.20
2018-02-10T03:36:54.404Z,55.90
2018-02-10T03:37:29.785Z,52.40
2018-02-10T03:38:04.907Z,51.90
2018-02-10T03:38:40.486Z,57.20
2018-02-10T03:39:16.114Z,60.10
2018-02-10T03:39:51.433Z,58.30
2018-02-10T03:40:26.838Z,54.40
2018-02-10T03:41:02.242Z,52.30
2018-02-10T03:41:37.637Z,55.30
2018-02-10T03:42:13.040Z,57.20
2018-02-10T03:42:48.621Z,57.50
2018-02-10T03:43:23.845Z,54.80
2018-02-10T03:43:59.335Z,52.50
2018-02-10T03:44:35.050Z,54.10
2018-02-10T03:45:10.266Z,59.60
2018-02-10T03:45:50.272Z,60.20
2018-02-10T03:46:25.901Z,56.30
2018-02-10T03:47:01.183Z,54.60
2018-02-10T03:47:36.693Z,57.30
2018-02-10T03:48:12.281Z,56.00
2018-02-10T03:48:47.490Z,57.00
2018-02-10T03:49:22.581Z,58.70
2018-02-10T03:49:57.994Z,57.00
2018-02-10T03:50:33.315Z,53.70
2018-02-10T03:51:08.528Z,61.10
2018-02-10T03:51:43.918Z,55.80
2018-02-10T03:52:19.236Z,50.90
2018-02-10T03:52:54.554Z,50.90
2018-02-10T03:53:30.055Z,57.30
2018-02-10T03:54:05.389Z,61.60
2018-02-10T03:54:40.777Z,57.10
2018-02-10T03:55:16.091Z,53.00
2018-02-10T03:55:51.509Z,48.80
2018-02-10T03:56:27.227Z,55.70
2018-02-10T03:57:02.322Z,58.70
2018-02-10T03:57:38.022Z,57.20
2018-02-10T03:58:13.347Z,53.40
2018-02-10T03:58:48.643Z,54.20
2018-02-10T03:59:23.863Z,59.40
2018-02-10T03:59:59.451Z,56.60
2018-02-10T04:00:34.971Z,55.50
2018-02-10T04:01:10.187Z,55.00
2018-02-10T04:01:45.705Z,58.90
2018-02-10T04:02:21.190Z,58.50
2018-02-10T04:02:56.402Z,54.10
2018-02-10T04:03:31.785Z,55.10
2018-02-10T04:04:07.306Z,57.80
2018-02-10T04:04:44.260Z,57.50
2018-02-10T04:05:19.449Z,56.20
2018-02-10T04:05:54.575Z,54.90
2018-02-10T04:06:30.017Z,60.30
2018-02-10T04:07:05.331Z,67.50
2018-02-10T04:07:40.730Z,63.10
2018-02-10T04:08:16.354Z,56.40
2018-02-10T04:08:51.745Z,57.50
2018-02-10T04:09:27.367Z,57.50
2018-02-10T04:10:04.759Z,56.50
2018-02-10T04:10:44.382Z,57.40
2018-02-10T04:11:19.806Z,57.30
2018-02-10T04:11:58.533Z,56.70
2018-02-10T04:12:35.652Z,60.70
2018-02-10T04:13:10.845Z,57.60
2018-02-10T04:13:46.385Z,55.60
2018-02-10T04:14:21.884Z,57.60
2018-02-10T04:14:57.202Z,60.80
2018-02-10T04:15:32.427Z,65.60
2018-02-10T04:16:07.619Z,58.30
2018-02-10T04:16:45.944Z,56.10
2018-02-10T04:17:20.967Z,58.40
2018-02-10T04:17:56.485Z,60.70
2018-02-10T04:18:31.776Z,59.90
2018-02-10T04:19:07.206Z,59.60
2018-02-10T04:19:42.403Z,65.30
2018-02-10T04:20:17.718Z,57.50
2018-02-10T04:20:53.415Z,50.70
2018-02-10T04:21:28.734Z,50.10
2018-02-10T04:22:04.064Z,53.80
2018-02-10T04:22:39.685Z,56.10
2018-02-10T04:23:17.603Z,57.00
2018-02-10T04:23:55.299Z,61.90
2018-02-10T04:24:30.917Z,61.30
2018-02-10T04:25:06.227Z,60.20
2018-02-10T04:25:44.773Z,55.90
2018-02-10T04:26:20.304Z,57.50
2018-02-10T04:26:59.092Z,59.50
2018-02-10T04:27:34.922Z,55.40
2018-02-10T04:28:10.432Z,60.70
2018-02-10T04:28:45.749Z,62.10
2018-02-10T04:29:20.845Z,56.60
2018-02-10T04:29:57.662Z,57.70
2018-02-10T04:30:33.076Z,59.50
2018-02-10T04:31:08.396Z,64.50
2018-02-10T04:31:43.820Z,61.90
2018-02-10T04:32:20.718Z,62.30
2018-02-10T04:32:55.983Z,58.90
2018-02-10T04:33:31.410Z,56.50
2018-02-10T04:34:06.726Z,57.20
2018-02-10T04:34:41.916Z,57.50
2018-02-10T04:35:17.840Z,59.30
2018-02-10T04:35:53.227Z,64.20
2018-02-10T04:36:28.551Z,62.40
2018-02-10T04:37:04.041Z,57.10
2018-02-10T04:37:42.568Z,58.90
2018-02-10T04:38:19.188Z,55.90
2018-02-10T04:38:54.513Z,57.60
2018-02-10T04:39:29.749Z,71.70
2018-02-10T04:40:05.043Z,74.60
2018-02-10T04:40:40.667Z,67.50
2018-02-10T04:41:16.138Z,63.60
2018-02-10T04:41:51.166Z,64.10
2018-02-10T04:42:27.762Z,71.50
2018-02-10T04:43:03.088Z,75.40
2018-02-10T04:43:38.584Z,70.30
2018-02-10T04:44:17.743Z,71.20
2018-02-10T04:44:53.362Z,68.90
2018-02-10T04:45:28.859Z,70.50
2018-02-10T04:46:04.590Z,74.50
2018-02-10T04:46:42.903Z,69.40
2018-02-10T04:47:18.523Z,67.30
2018-02-10T04:47:56.870Z,70.70
2018-02-10T04:48:32.244Z,72.30
2018-02-10T04:49:07.470Z,80.30
2018-02-10T04:49:43.005Z,72.90
2018-02-10T04:50:18.329Z,72.40
2018-02-10T04:50:58.436Z,73.00
2018-02-10T04:51:33.772Z,68.60
2018-02-10T04:52:09.154Z,74.40
2018-02-10T04:52:44.879Z,80.60
2018-02-10T04:53:20.422Z,83.30
2018-02-10T04:53:56.212Z,84.30
2018-02-10T04:54:31.344Z,88.00
2018-02-10T04:55:06.463Z,87.30
2018-02-10T04:55:46.086Z,76.60
2018-02-10T04:56:21.574Z,76.00
2018-02-10T04:56:57.199Z,81.60
2018-02-10T04:57:32.588Z,80.10
2018-02-10T04:58:08.119Z,82.00
2018-02-10T04:58:43.514Z,90.20
2018-02-10T04:59:18.849Z,88.40
2018-02-10T04:59:55.570Z,83.40
2018-02-10T05:00:31.102Z,82.30
2018-02-10T05:01:12.744Z,94.00
2018-02-10T05:01:51.266Z,95.60
2018-02-10T05:02:26.589Z,87.10
2018-02-10T05:03:09.201Z,80.60
2018-02-10T05:03:44.421Z,86.10
2018-02-10T05:04:19.543Z,87.50
2018-02-10T05:04:54.937Z,93.00
2018-02-10T05:05:30.438Z,98.30
2018-02-10T05:06:05.741Z,93.60
2018-02-10T05:06:41.874Z,103.20
2018-02-10T05:07:17.369Z,98.40
2018-02-10T05:07:52.786Z,83.60
2018-02-10T05:08:27.971Z,92.30
2018-02-10T05:09:03.291Z,97.80
2018-02-10T05:09:38.401Z,94.30
2018-02-10T05:10:16.285Z,97.40
2018-02-10T05:10:54.706Z,97.50
2018-02-10T05:11:30.006Z,83.20
2018-02-10T05:12:05.127Z,93.30
2018-02-10T05:12:40.426Z,94.70
2018-02-10T05:13:15.626Z,89.60
2018-02-10T05:13:50.911Z,95.90
2018-02-10T05:14:26.417Z,95.80
2018-02-10T05:15:01.709Z,101.50
2018-02-10T05:15:38.026Z,97.10
2018-02-10T05:16:16.525Z,90.50
2018-02-10T05:16:51.669Z,96.20
2018-02-10T05:17:26.760Z,94.10
2018-02-10T05:18:01.942Z,98.40
2018-02-10T05:18:37.261Z,97.70
2018-02-10T05:19:12.642Z,96.60
2018-02-10T05:19:50.560Z,98.00
2018-02-10T05:20:26.139Z,101.30
2018-02-10T05:21:05.514Z,98.20
2018-02-10T05:21:40.610Z,97.60
2018-02-10T05:22:15.927Z,91.40
2018-02-10T05:22:51.231Z,87.90
2018-02-10T05:23:30.114Z,91.50
2018-02-10T05:24:05.616Z,103.40
2018-02-10T05:24:43.394Z,112.90
2018-02-10T05:25:21.518Z,104.10
2018-02-10T05:25:56.691Z,96.50
2018-02-10T05:26:32.494Z,99.60
2018-02-10T05:27:10.501Z,114.90
2018-02-10T05:27:45.707Z,101.50
2018-02-10T05:28:21.029Z,96.30
2018-02-10T05:28:56.505Z,97.70
2018-02-10T05:29:31.516Z,95.30
2018-02-10T05:30:06.793Z,95.50
2018-02-10T05:30:42.998Z,96.80
2018-02-10T05:31:24.622Z,98.50
2018-02-10T05:31:59.803Z,105.80
2018-02-10T05:32:36.751Z,101.70
2018-02-10T05:33:11.926Z,114.80
2018-02-10T05:33:50.453Z,119.40
2018-02-10T05:34:27.129Z,113.60
2018-02-10T05:35:02.531Z,119.50
2018-02-10T05:35:38.646Z,107.00
2018-02-10T05:36:16.763Z,95.40
2018-02-10T05:36:52.188Z,104.00
2018-02-10T05:37:27.472Z,109.00
2018-02-10T05:38:02.714Z,113.40
2018-02-10T05:38:38.207Z,112.10
2018-02-10T05:39:13.311Z,104.70
2018-02-10T05:39:53.691Z,112.00
2018-02-10T05:40:29.198Z,107.90
2018-02-10T05:41:07.618Z,99.20
2018-02-10T05:41:43.015Z,104.90
2018-02-10T05:42:18.331Z,108.90
2018-02-10T05:42:57.117Z,112.10
2018-02-10T05:43:34.749Z,105.60
2018-02-10T05:44:09.940Z,108.80
2018-02-10T05:44:51.453Z,111.70
2018-02-10T05:45:26.771Z,110.30
2018-02-10T05:46:02.963Z,104.80
2018-02-10T05:46:38.492Z,108.10
2018-02-10T05:47:13.871Z,106.60
2018-02-10T05:47:52.980Z,119.00
2018-02-10T05:48:29.164Z,116.30
2018-02-10T05:49:06.800Z,103.90
2018-02-10T05:49:42.187Z,107.70
2018-02-10T05:50:17.795Z,115.90
2018-02-10T05:50:53.096Z,119.60
2018-02-10T05:51:30.882Z,104.60
2018-02-10T05:52:10.087Z,106.50
2018-02-10T05:52:48.692Z,112.90
2018-02-10T05:53:24.183Z,109.80
2018-02-10T05:54:01.377Z,112.70
2018-02-10T05:54:37.705Z,116.10
2018-02-10T05:55:12.911Z,108.70
2018-02-10T05:55:48.493Z,111.30
2018-02-10T05:56:23.711Z,113.40
2018-02-10T05:56:58.804Z,112.70
2018-02-10T05:57:34.401Z,117.50
2018-02-10T05:58:09.489Z,116.60
2018-02-10T05:58:44.906Z,108.40
2018-02-10T05:59:20.300Z,113.00
2018-02-10T05:59:57.443Z,112.80
2018-02-10T06:00:33.023Z,116.50
2018-02-10T06:01:08.468Z,118.70
2018-02-10T06:01:46.558Z,120.50
2018-02-10T06:02:23.265Z,122.90
2018-02-10T06:03:00.074Z,128.60
2018-02-10T06:03:37.661Z,127.30
2018-02-10T06:04:13.054Z,130.20
2018-02-10T06:04:48.236Z,126.60
2018-02-10T06:05:23.366Z,114.70
2018-02-10T06:06:01.355Z,124.20
2018-02-10T06:06:36.859Z,123.10
2018-02-10T06:07:12.057Z,118.10
2018-02-10T06:07:47.342Z,119.80
2018-02-10T06:08:22.859Z,118.50
2018-02-10T06:08:58.345Z,115.80
2018-02-10T06:09:33.761Z,116.90
2018-02-10T06:10:09.047Z,117.80
2018-02-10T06:10:48.204Z,118.20
2018-02-10T06:11:23.280Z,118.30
2018-02-10T06:12:01.301Z,120.50
2018-02-10T06:12:36.929Z,117.30
2018-02-10T06:13:12.230Z,114.30
2018-02-10T06:13:51.246Z,127.40
2018-02-10T06:14:26.963Z,111.00
2018-02-10T06:15:02.078Z,113.40
2018-02-10T06:15:37.762Z,120.40
2018-02-10T06:16:13.015Z,120.00
2018-02-10T06:16:48.198Z,115.10
2018-02-10T06:17:23.507Z,112.70
2018-02-10T06:17:59.030Z,127.80
2018-02-10T06:18:34.401Z,122.90
2018-02-10T06:19:11.911Z,122.50
2018-02-10T06:19:46.991Z,121.70
2018-02-10T06:20:22.411Z,122.60
2018-02-10T06:20:57.879Z,120.70
2018-02-10T06:21:35.122Z,116.20
2018-02-10T06:22:13.006Z,117.90
2018-02-10T06:22:48.524Z,113.80
2018-02-10T06:23:23.945Z,108.80
2018-02-10T06:23:59.241Z,114.90
2018-02-10T06:24:34.570Z,117.60
2018-02-10T06:27:50.009Z,123.00
2018-02-10T06:28:25.485Z,125.50
2018-02-10T06:29:00.869Z,127.40
2018-02-10T06:29:36.926Z,118.70
2018-02-10T06:30:12.012Z,122.70
2018-02-10T06:30:47.314Z,119.70
2018-02-10T06:31:22.594Z,121.80
2018-02-10T06:31:57.764Z,122.70
2018-02-10T06:32:32.850Z,123.80
2018-02-10T06:33:08.186Z,127.10
2018-02-10T06:33:43.545Z,132.10
2018-02-10T06:34:18.634Z,125.30
2018-02-10T06:34:56.178Z,130.00
2018-02-10T06:35:31.865Z,122.70
2018-02-10T06:36:07.034Z,135.70
2018-02-10T06:36:42.117Z,133.40
2018-02-10T06:37:20.601Z,138.80
2018-02-10T06:37:56.180Z,135.40
2018-02-10T06:38:36.536Z,135.70
2018-02-10T06:39:11.626Z,141.70
2018-02-10T06:39:51.019Z,140.20
2018-02-10T06:40:27.885Z,128.50
2018-02-10T06:41:10.592Z,132.00
2018-02-10T06:41:48.864Z,136.30
2018-02-10T06:42:24.858Z,138.60
2018-02-10T06:43:00.033Z,133.40
2018-02-10T06:43:35.528Z,120.20
2018-02-10T06:44:11.160Z,126.60
2018-02-10T06:44:46.633Z,121.10
2018-02-10T06:45:23.926Z,124.70
2018-02-10T06:45:59.403Z,137.90
2018-02-10T06:46:38.593Z,128.90
2018-02-10T06:47:14.079Z,128.30
2018-02-10T06:47:49.482Z,135.10
2018-02-10T06:48:27.657Z,144.60
2018-02-10T06:49:03.045Z,148.50
2018-02-10T06:49:38.138Z,143.40
2018-02-10T06:50:16.671Z,134.00
2018-02-10T06:50:55.201Z,141.40
2018-02-10T06:51:34.469Z,144.60
2018-02-10T06:52:09.925Z,143.90
2018-02-10T06:52:45.475Z,136.20
2018-02-10T06:53:20.581Z,141.00
2018-02-10T06:53:56.086Z,152.10
2018-02-10T06:54:31.463Z,150.40
2018-02-10T06:55:06.902Z,148.30
2018-02-10T06:55:45.823Z,150.20
2018-02-10T06:56:21.422Z,151.70
2018-02-10T06:56:59.707Z,147.90
2018-02-10T06:57:34.902Z,149.30
2018-02-10T06:58:10.235Z,160.20
2018-02-10T06:58:45.471Z,165.80
2018-02-10T06:59:20.947Z,152.60
2018-02-10T06:59:57.343Z,138.60
2018-02-10T07:00:32.763Z,147.00
2018-02-10T07:01:08.833Z,154.90
2018-02-10T07:01:44.453Z,156.90
2018-02-10T07:02:19.647Z,161.80
2018-02-10T07:02:55.157Z,168.00
2018-02-10T07:03:30.432Z,163.80
2018-02-10T07:04:05.749Z,155.20
2018-02-10T07:04:41.553Z,160.70
2018-02-10T07:05:17.174Z,156.30
2018-02-10T07:05:52.465Z,158.90
2018-02-10T07:06:28.549Z,162.20
2018-02-10T07:07:03.755Z,153.80
2018-02-10T07:07:39.722Z,162.40
2018-02-10T07:08:16.877Z,178.40
2018-02-10T07:08:51.997Z,175.30
2018-02-10T07:09:27.412Z,173.00
2018-02-10T07:10:02.705Z,165.00
2018-02-10T07:10:38.945Z,164.80
2018-02-10T07:11:19.516Z,165.60
2018-02-10T07:11:56.881Z,167.20
2018-02-10T07:12:36.495Z,170.00
2018-02-10T07:13:13.694Z,166.00
2018-02-10T07:13:53.275Z,165.80
2018-02-10T07:14:29.492Z,160.70
2018-02-10T07:15:08.977Z,161.10
2018-02-10T07:15:45.603Z,167.30
2018-02-10T07:16:20.794Z,175.70
2018-02-10T07:16:56.797Z,161.40
2018-02-10T07:17:32.281Z,157.00
2018-02-10T07:18:07.576Z,154.20
2018-02-10T07:18:42.774Z,159.40
2018-02-10T07:19:18.077Z,169.50
2018-02-10T07:19:53.742Z,164.90
2018-02-10T07:20:29.406Z,163.50
2018-02-10T07:21:04.766Z,165.90
2018-02-10T07:21:40.082Z,165.90
2018-02-10T07:22:15.826Z,160.70
2018-02-10T07:22:50.995Z,165.60
2018-02-10T07:23:26.395Z,167.00
2018-02-10T07:24:01.668Z,173.70
2018-02-10T07:24:43.819Z,190.10
2018-02-10T07:25:22.236Z,179.20
2018-02-10T07:25:58.546Z,167.60
2018-02-10T07:26:33.799Z,154.20
2018-02-10T07:27:09.184Z,152.90
2018-02-10T07:27:44.693Z,160.60
2018-02-10T07:28:20.078Z,158.40
2018-02-10T07:28:55.577Z,172.20
2018-02-10T07:29:30.857Z,176.20
2018-02-10T07:30:06.647Z,162.10
2018-02-10T07:30:43.836Z,158.50
2018-02-10T07:31:22.901Z,160.40
2018-02-10T07:31:58.247Z,158.40
2018-02-10T07:32:33.528Z,156.10
2018-02-10T07:33:08.836Z,161.70
2018-02-10T07:33:47.810Z,154.90
2018-02-10T07:34:23.212Z,159.10
2018-02-10T07:35:01.096Z,168.80
2018-02-10T07:35:36.896Z,160.40
2018-02-10T07:36:11.986Z,169.00
2018-02-10T07:36:47.177Z,174.40
2018-02-10T07:37:22.601Z,167.00
2018-02-10T07:38:00.729Z,155.80
2018-02-10T07:38:36.170Z,159.40
2018-02-10T07:39:11.353Z,156.30
2018-02-10T07:39:46.672Z,152.00